| time (UTC) | temp F | wind direction | speed knots | gust knots | rain 1hr in | rain 24hr in | rain mn in | humidity % | barometer mb |
| 20260508104023 | 64 | 24 | 1.7 | 3.5 | 0.00 | 0.28 | 0.00 | 91 | 1013.6 |
| 20260508103023 | 64 | 42 | 2.6 | 6.1 | 0.00 | 0.28 | 0.00 | 90 | 1013.6 |
| 20260508102024 | 64 | 32 | 0.9 | 3.5 | 0.00 | 0.28 | 0.00 | 91 | 1013.6 |
| 20260508101024 | 63 | 29 | 1.7 | 3.5 | 0.00 | 0.28 | 0.00 | 90 | 1013.7 |
| 20260508100024 | 63 | 24 | 1.7 | 6.1 | 0.00 | 0.28 | 0.00 | 91 | 1013.9 |
| 20260508095024 | 63 | 49 | 1.7 | 3.5 | 0.00 | 0.28 | 0.00 | 92 | 1014.0 |
| 20260508094024 | 62 | 49 | 1.7 | 3.5 | 0.00 | 0.28 | 0.00 | 93 | 1014.0 |
| 20260508093027 | 62 | 35 | 1.7 | 2.6 | 0.00 | 0.28 | 0.00 | 94 | 1013.9 |
| 20260508092023 | 62 | 35 | 0.9 | 2.6 | 0.00 | 0.28 | 0.00 | 94 | 1013.9 |
| 20260508091023 | 61 | 33 | 1.7 | 2.6 | 0.00 | 0.28 | 0.00 | 95 | 1014.0 |
| 20260508090044 | 61 | 25 | 1.7 | 3.5 | 0.00 | 0.28 | 0.00 | 95 | 1013.7 |
| 20260508085024 | 61 | 34 | 0.9 | 2.6 | 0.00 | 0.28 | 0.00 | 96 | 1013.8 |
| 20260508084024 | 60 | 39 | 0.9 | 2.6 | 0.00 | 0.28 | 0.00 | 97 | 1013.5 |
| 20260508083024 | 60 | 35 | 0.9 | 2.6 | 0.00 | 0.28 | 0.00 | 96 | 1013.7 |
| 20260508082044 | 60 | 39 | 0.9 | 3.5 | 0.00 | 0.28 | 0.00 | 96 | 1013.7 |
| 20260508081024 | 60 | 23 | 0.9 | 2.6 | 0.00 | 0.28 | 0.00 | 97 | 1013.6 |
| 20260508080024 | 61 | 32 | 1.7 | 5.2 | 0.00 | 0.28 | 0.00 | 98 | 1013.4 |
| 20260508075024 | 60 | 25 | 0.9 | 2.6 | 0.00 | 0.28 | 0.00 | 99 | 1013.3 |
| 20260508074044 | 59 | 41 | 1.7 | 3.5 | 0.00 | 0.28 | 0.00 | 99 | 1013.4 |
| 20260508073044 | 59 | 29 | 0.9 | 2.6 | 0.00 | 0.28 | 0.00 | 99 | 1013.3 |
| 20260508072024 | 57 | 34 | 0.9 | 2.6 | 0.00 | 0.28 | 0.00 | 99 | 1013.2 |
| 20260508071024 | 57 | 27 | 0.9 | 1.7 | 0.00 | 0.28 | 0.00 | 99 | 1013.3 |
| 20260508070023 | 57 | 25 | 0.9 | 1.7 | 0.00 | 0.28 | 0.00 | 99 | 1013.2 |
| 20260508065024 | 57 | 29 | 0.9 | 1.7 | 0.00 | 0.28 | 0.00 | 99 | 1013.2 |
| 20260508064044 | 56 | 21 | 0.9 | 2.6 | 0.00 | 0.28 | 0.00 | 99 | 1013.1 |
| 20260508063024 | 56 | 26 | 0.9 | 1.7 | 0.00 | 0.28 | 0.00 | 99 | 1013.1 |
| 20260508062024 | 56 | 14 | 0.0 | 1.7 | 0.00 | 0.28 | 0.00 | 99 | 1013.0 |
| 20260508061024 | 56 | 31 | 0.9 | 1.7 | 0.00 | 0.28 | 0.00 | 99 | 1012.9 |
| 20260508060024 | 56 | 28 | 0.9 | 1.7 | 0.00 | 0.28 | 0.00 | 99 | 1012.8 |
| 20260508055024 | 56 | 29 | 0.9 | 1.7 | 0.00 | 0.28 | 0.00 | 99 | 1012.7 |
| 20260508054024 | 56 | 35 | 0.9 | 2.6 | 0.00 | 0.28 | 0.00 | 99 | 1012.5 |
| 20260508053024 | 56 | 26 | 0.9 | 1.7 | 0.00 | 0.28 | 0.00 | 99 | 1012.3 |
| 20260508052024 | 56 | 28 | 0.9 | 1.7 | 0.00 | 0.28 | 0.00 | 99 | 1012.1 |
| 20260508051024 | 56 | 22 | 0.0 | 1.7 | 0.00 | 0.28 | 0.00 | 99 | 1011.8 |
| 20260508050024 | 55 | 15 | 0.0 | 1.7 | 0.00 | 0.28 | 0.00 | 99 | 1011.7 |
| 20260508045024 | 55 | 17 | 0.0 | 0.9 | 0.00 | 0.28 | 0.00 | 99 | 1011.5 |
| 20260508044044 | 55 | 15 | 0.0 | 0.9 | 0.00 | 0.28 | 0.00 | 99 | 1011.4 |
| 20260508043024 | 55 | 23 | 0.0 | 0.9 | 0.00 | 0.28 | 0.00 | 99 | 1011.5 |
| 20260508042024 | 55 | 34 | 0.0 | 0.9 | 0.00 | 0.28 | 0.00 | 99 | 1011.4 |
| 20260508041025 | 55 | 38 | 0.0 | 0.9 | 0.00 | 0.28 | 0.00 | 99 | 1011.3 |
| 20260508040024 | 56 | 22 | 0.0 | 0.9 | 0.00 | 0.28 | 0.00 | 99 | 1011.2 |
| 20260508035024 | 56 | 18 | 0.0 | 0.9 | 0.00 | 0.28 | 0.00 | 99 | 1011.2 |
| 20260508034024 | 56 | 19 | 0.9 | 1.7 | 0.00 | 0.28 | 0.00 | 99 | 1011.4 |
| 20260508033024 | 56 | 24 | 0.9 | 1.7 | 0.00 | 0.28 | 0.00 | 99 | 1011.6 |
| 20260508032044 | 56 | 0.0 | 0.0 | 0.00 | 0.28 | 0.00 | 99 | 1011.8 | |
| 20260508031024 | 56 | 15 | 0.0 | 0.9 | 0.00 | 0.28 | 0.00 | 99 | 1011.7 |
| 20260508030023 | 56 | 25 | 0.0 | 0.9 | 0.00 | 0.28 | 0.00 | 99 | 1011.6 |
| 20260508025023 | 56 | 15 | 0.0 | 0.9 | 0.00 | 0.29 | 0.00 | 99 | 1011.6 |
| 20260508024023 | 56 | 38 | 0.9 | 2.6 | 0.00 | 0.29 | 0.00 | 99 | 1011.6 |
| 20260508023043 | 56 | 30 | 0.9 | 1.7 | 0.00 | 0.29 | 0.00 | 99 | 1011.6 |
| 20260508022023 | 55 | 23 | 0.0 | 0.9 | 0.00 | 0.29 | 0.00 | 99 | 1011.6 |
| 20260508021023 | 56 | 24 | 0.9 | 1.7 | 0.00 | 0.29 | 0.00 | 99 | 1011.4 |
| 20260508020024 | 56 | 21 | 0.9 | 1.7 | 0.00 | 0.29 | 0.00 | 99 | 1011.4 |
| 20260508015024 | 55 | 21 | 0.9 | 1.7 | 0.00 | 0.29 | 0.00 | 99 | 1011.6 |
| 20260508014024 | 55 | 25 | 0.0 | 1.7 | 0.00 | 0.29 | 0.00 | 99 | 1011.7 |
| 20260508013024 | 56 | 58 | 0.0 | 1.7 | 0.00 | 0.29 | 0.00 | 99 | 1011.8 |
| 20260508012023 | 56 | 21 | 0.9 | 2.6 | 0.00 | 0.29 | 0.00 | 99 | 1011.8 |
| 20260508011023 | 56 | 29 | 0.0 | 1.7 | 0.00 | 0.29 | 0.00 | 99 | 1011.8 |
| 20260508010024 | 56 | 28 | 0.9 | 2.6 | 0.00 | 0.29 | 0.00 | 99 | 1012.1 |
| 20260508005024 | 56 | 27 | 0.9 | 1.7 | 0.00 | 0.29 | 0.00 | 99 | 1012.4 |
| 20260508004024 | 56 | 47 | 0.9 | 1.7 | 0.01 | 0.29 | 0.00 | 99 | 1012.3 |
| 20260508003024 | 56 | 22 | 0.9 | 1.7 | 0.01 | 0.29 | 0.00 | 99 | 1012.4 |
| 20260508002024 | 56 | 21 | 0.0 | 0.9 | 0.01 | 0.29 | 0.00 | 99 | 1012.4 |
| 20260508001024 | 56 | 33 | 0.9 | 1.7 | 0.01 | 0.29 | 0.00 | 99 | 1012.3 |
| 20260508000024 | 56 | 23 | 0.9 | 1.7 | 0.01 | 0.29 | 0.00 | 99 | 1012.5 |
| 20260507235024 | 56 | 27 | 0.9 | 1.7 | 0.02 | 0.29 | 0.29 | 99 | 1012.5 |
| 20260507234024 | 56 | 30 | 0.0 | 1.7 | 0.02 | 0.28 | 0.28 | 99 | 1012.6 |
| 20260507233024 | 56 | 28 | 0.9 | 1.7 | 0.02 | 0.28 | 0.28 | 99 | 1012.9 |
| 20260507232024 | 56 | 20 | 0.9 | 1.7 | 0.03 | 0.28 | 0.28 | 99 | 1013.0 |
| 20260507231024 | 56 | 41 | 0.9 | 1.7 | 0.03 | 0.28 | 0.28 | 99 | 1013.1 |
| 20260507230023 | 56 | 19 | 0.0 | 0.9 | 0.03 | 0.28 | 0.28 | 99 | 1013.1 |
| 20260507225043 | 56 | 18 | 0.0 | 0.9 | 0.02 | 0.27 | 0.27 | 99 | 1013.3 |
| 20260507224023 | 56 | 16 | 0.0 | 1.7 | 0.01 | 0.26 | 0.26 | 99 | 1013.3 |
| 20260507223024 | 56 | 27 | 0.9 | 1.7 | 0.01 | 0.26 | 0.26 | 99 | 1013.3 |
| 20260507222023 | 56 | 41 | 0.9 | 2.6 | 0.00 | 0.25 | 0.25 | 99 | 1013.2 |
| 20260507221023 | 56 | 32 | 0.9 | 2.6 | 0.00 | 0.25 | 0.25 | 99 | 1013.2 |
| 20260507220024 | 56 | 33 | 0.9 | 3.5 | 0.00 | 0.25 | 0.25 | 99 | 1013.2 |
| 20260507215024 | 56 | 33 | 0.9 | 2.6 | 0.00 | 0.25 | 0.25 | 99 | 1013.1 |
| 20260507214024 | 56 | 36 | 0.9 | 2.6 | 0.00 | 0.25 | 0.25 | 99 | 1013.1 |
| 20260507213024 | 56 | 49 | 0.9 | 1.7 | 0.00 | 0.25 | 0.25 | 99 | 1012.9 |
| 20260507212024 | 56 | 41 | 0.9 | 1.7 | 0.00 | 0.25 | 0.25 | 99 | 1013.1 |
| 20260507211024 | 56 | 17 | 0.9 | 1.7 | 0.00 | 0.25 | 0.25 | 99 | 1013.1 |
| 20260507210024 | 56 | 36 | 0.9 | 1.7 | 0.01 | 0.25 | 0.25 | 99 | 1013.2 |
| 20260507205023 | 57 | 31 | 0.9 | 1.7 | 0.01 | 0.25 | 0.25 | 99 | 1012.9 |
| 20260507204024 | 57 | 31 | 0.9 | 2.6 | 0.01 | 0.25 | 0.25 | 99 | 1012.9 |
| 20260507203024 | 57 | 32 | 1.7 | 3.5 | 0.01 | 0.25 | 0.25 | 99 | 1012.7 |
| 20260507202024 | 57 | 50 | 1.7 | 3.5 | 0.02 | 0.25 | 0.25 | 99 | 1012.8 |
| 20260507201024 | 57 | 43 | 1.7 | 3.5 | 0.02 | 0.25 | 0.25 | 99 | 1012.7 |
| 20260507200044 | 57 | 39 | 0.9 | 2.6 | 0.01 | 0.24 | 0.24 | 99 | 1012.6 |
| 20260507195024 | 57 | 43 | 0.9 | 2.6 | 0.02 | 0.24 | 0.24 | 99 | 1012.4 |
| 20260507194024 | 57 | 28 | 0.9 | 1.7 | 0.02 | 0.24 | 0.24 | 99 | 1012.4 |
| 20260507193024 | 57 | 79 | 1.7 | 3.5 | 0.02 | 0.24 | 0.24 | 99 | 1012.1 |
| 20260507192024 | 57 | 43 | 0.9 | 1.7 | 0.01 | 0.23 | 0.23 | 99 | 1012.2 |
| 20260507191023 | 57 | 24 | 0.9 | 2.6 | 0.01 | 0.23 | 0.23 | 99 | 1012.2 |
| 20260507190024 | 57 | 28 | 0.9 | 2.6 | 0.01 | 0.23 | 0.23 | 99 | 1012.1 |
| 20260507185024 | 57 | 23 | 0.9 | 1.7 | 0.00 | 0.22 | 0.22 | 99 | 1012.1 |
| 20260507184024 | 57 | 17 | 0.9 | 1.7 | 0.01 | 0.22 | 0.22 | 99 | 1011.9 |
| 20260507183024 | 57 | 25 | 0.9 | 1.7 | 0.02 | 0.22 | 0.22 | 99 | 1011.8 |
| 20260507182023 | 58 | 22 | 0.9 | 2.6 | 0.03 | 0.22 | 0.22 | 99 | 1011.6 |
| 20260507181023 | 58 | 22 | 0.9 | 1.7 | 0.04 | 0.22 | 0.22 | 99 | 1011.4 |
| 20260507180024 | 58 | 27 | 0.9 | 1.7 | 0.05 | 0.22 | 0.22 | 99 | 1011.3 |
| 20260507175024 | 58 | 58 | 0.9 | 1.7 | 0.07 | 0.22 | 0.22 | 99 | 1011.2 |
| 20260507174024 | 58 | 40 | 0.9 | 1.7 | 0.09 | 0.21 | 0.21 | 99 | 1011.1 |
| 20260507173044 | 58 | 28 | 0.9 | 1.7 | 0.09 | 0.20 | 0.20 | 99 | 1011.1 |
| 20260507172024 | 58 | 18 | 0.9 | 2.6 | 0.10 | 0.19 | 0.19 | 99 | 1011.1 |
| 20260507171024 | 58 | 32 | 1.7 | 3.5 | 0.11 | 0.18 | 0.18 | 99 | 1011.2 |
| 20260507170023 | 58 | 32 | 1.7 | 3.5 | 0.12 | 0.17 | 0.17 | 99 | 1011.4 |
| 20260507165023 | 58 | 30 | 1.7 | 3.5 | 0.11 | 0.15 | 0.15 | 99 | 1011.4 |
| 20260507164044 | 58 | 27 | 2.6 | 5.2 | 0.08 | 0.12 | 0.12 | 99 | 1011.5 |
| 20260507163024 | 59 | 32 | 1.7 | 2.6 | 0.08 | 0.11 | 0.11 | 99 | 1011.5 |
| 20260507162024 | 59 | 27 | 0.9 | 2.6 | 0.08 | 0.09 | 0.09 | 99 | 1011.4 |
| 20260507161024 | 59 | 39 | 0.9 | 2.6 | 0.06 | 0.07 | 0.07 | 99 | 1011.4 |
| 20260507160024 | 59 | 56 | 0.9 | 2.6 | 0.04 | 0.05 | 0.05 | 98 | 1011.4 |
| 20260507155024 | 59 | 39 | 0.9 | 3.5 | 0.03 | 0.04 | 0.04 | 98 | 1011.5 |
| 20260507154024 | 60 | 46 | 0.9 | 3.5 | 0.03 | 0.04 | 0.04 | 97 | 1011.4 |
| 20260507153024 | 60 | 25 | 1.7 | 3.5 | 0.02 | 0.03 | 0.03 | 96 | 1011.4 |
| 20260507152024 | 60 | 39 | 1.7 | 5.2 | 0.00 | 0.01 | 0.01 | 93 | 1011.5 |
| 20260507151024 | 60 | 39 | 2.6 | 7.8 | 0.00 | 0.01 | 0.01 | 94 | 1011.5 |
| 20260507150023 | 60 | 49 | 2.6 | 7.0 | 0.00 | 0.01 | 0.01 | 95 | 1011.4 |
| 20260507145023 | 61 | 56 | 3.5 | 7.8 | 0.00 | 0.01 | 0.01 | 94 | 1011.5 |
| 20260507144023 | 62 | 53 | 2.6 | 7.8 | 0.00 | 0.01 | 0.01 | 92 | 1011.4 |
| 20260507143043 | 62 | 56 | 2.6 | 7.0 | 0.00 | 0.01 | 0.01 | 91 | 1011.4 |
| 20260507142024 | 62 | 40 | 2.6 | 7.0 | 0.00 | 0.01 | 0.01 | 91 | 1011.5 |
| 20260507141024 | 64 | 65 | 3.5 | 7.0 | 0.00 | 0.01 | 0.01 | 85 | 1011.5 |
| 20260507140024 | 65 | 44 | 1.7 | 6.1 | 0.00 | 0.01 | 0.01 | 78 | 1011.6 |
| 20260507135205 | 65 | 35 | 2.6 | 6.1 | 0.00 | 0.01 | 0.01 | 77 | 1011.7 |
| 20260507134024 | 66 | 51 | 2.6 | 7.0 | 0.00 | 0.01 | 0.01 | 79 | 1011.7 |
| 20260507133044 | 65 | 24 | 2.6 | 6.1 | 0.00 | 0.01 | 0.01 | 81 | 1011.8 |
| 20260507132024 | 64 | 61 | 1.7 | 7.0 | 0.00 | 0.01 | 0.01 | 84 | 1011.9 |
| 20260507131044 | 64 | 29 | 1.7 | 5.2 | 0.00 | 0.01 | 0.01 | 85 | 1011.9 |
| 20260507130024 | 65 | 40 | 2.6 | 7.0 | 0.00 | 0.08 | 0.01 | 83 | 1011.9 |
| 20260507125024 | 65 | 45 | 1.7 | 3.5 | 0.00 | 0.09 | 0.01 | 82 | 1011.9 |
| 20260507124024 | 65 | 29 | 2.6 | 7.8 | 0.00 | 0.09 | 0.01 | 81 | 1012.0 |
| 20260507123024 | 65 | 28 | 1.7 | 6.1 | 0.00 | 0.11 | 0.01 | 81 | 1012.1 |
| 20260507122044 | 66 | 33 | 2.6 | 6.1 | 0.00 | 0.12 | 0.01 | 79 | 1012.1 |
| 20260507121024 | 66 | 49 | 2.6 | 7.8 | 0.00 | 0.12 | 0.01 | 78 | 1012.1 |
| 20260507120023 | 67 | 30 | 3.5 | 7.0 | 0.00 | 0.24 | 0.01 | 76 | 1012.2 |
| 20260507115024 | 66 | 55 | 2.6 | 7.0 | 0.00 | 0.34 | 0.01 | 78 | 1012.3 |
| 20260507114023 | 65 | 27 | 2.6 | 6.1 | 0.00 | 0.34 | 0.01 | 80 | 1012.5 |
| 20260507113024 | 65 | 44 | 1.7 | 5.2 | 0.00 | 0.34 | 0.01 | 79 | 1012.6 |
| 20260507112024 | 65 | 59 | 2.6 | 8.7 | 0.00 | 0.34 | 0.01 | 80 | 1012.7 |
| 20260507111024 | 66 | 35 | 2.6 | 5.2 | 0.00 | 0.34 | 0.01 | 80 | 1012.8 |
| 20260507110023 | 66 | 35 | 2.6 | 6.1 | 0.00 | 0.34 | 0.01 | 80 | 1012.7 |
| 20260507105104 | 66 | 43 | 3.5 | 7.0 | 0.00 | 0.34 | 0.01 | 80 | 1012.8 |